createdAt,value
2018-06-21T00:02:15.509Z,18.40
2018-06-21T00:04:43.820Z,18.30
2018-06-21T00:07:12.118Z,18.30
2018-06-21T00:09:40.432Z,18.20
2018-06-21T00:12:08.715Z,18.20
2018-06-21T00:14:37.023Z,18.10
2018-06-21T00:17:05.344Z,18.10
2018-06-21T00:19:33.631Z,18.10
2018-06-21T00:22:01.969Z,18.10
2018-06-21T00:24:30.497Z,18.00
2018-06-21T00:26:58.790Z,18.00
2018-06-21T00:29:27.081Z,17.90
2018-06-21T00:31:55.413Z,17.90
2018-06-21T00:34:23.767Z,17.90
2018-06-21T00:36:52.056Z,17.80
2018-06-21T00:39:20.359Z,17.80
2018-06-21T00:41:48.669Z,17.70
2018-06-21T00:44:16.998Z,17.70
2018-06-21T00:46:45.301Z,17.70
2018-06-21T00:49:13.623Z,17.60
2018-06-21T00:51:41.981Z,17.60
2018-06-21T00:54:10.289Z,17.40
2018-06-21T00:56:38.605Z,17.40
2018-06-21T00:59:06.922Z,17.30
2018-06-21T01:01:35.255Z,17.30
2018-06-21T01:04:03.585Z,17.30
2018-06-21T01:06:31.874Z,17.30
2018-06-21T01:09:00.178Z,17.30
2018-06-21T01:11:28.576Z,17.30
2018-06-21T01:13:56.884Z,17.20
2018-06-21T01:16:25.178Z,17.20
2018-06-21T01:18:53.480Z,17.20
2018-06-21T01:21:21.776Z,17.20
2018-06-21T01:23:50.069Z,17.20
2018-06-21T01:26:18.379Z,17.20
2018-06-21T01:28:46.691Z,17.20
2018-06-21T01:31:15.017Z,17.20
2018-06-21T01:33:43.319Z,17.20
2018-06-21T01:38:39.654Z,17.20
2018-06-21T01:41:07.965Z,17.20
2018-06-21T01:43:36.269Z,17.10
2018-06-21T01:46:04.641Z,17.10
2018-06-21T01:48:32.945Z,17.00
2018-06-21T01:51:01.234Z,17.00
2018-06-21T01:53:29.533Z,17.00
2018-06-21T01:55:57.830Z,16.90
2018-06-21T01:58:26.122Z,16.80
2018-06-21T02:00:54.441Z,16.70
2018-06-21T02:03:22.751Z,16.80
2018-06-21T02:05:51.066Z,16.80
2018-06-21T02:08:19.382Z,16.70
2018-06-21T02:10:47.686Z,16.80
2018-06-21T02:13:15.994Z,16.80
2018-06-21T02:15:44.334Z,16.80
2018-06-21T02:18:12.663Z,16.80
2018-06-21T02:20:40.958Z,16.80
2018-06-21T02:23:09.257Z,16.80
2018-06-21T02:25:37.570Z,16.70
2018-06-21T02:28:05.873Z,16.70
2018-06-21T02:30:34.216Z,16.70
2018-06-21T02:33:02.555Z,16.70
2018-06-21T02:35:30.861Z,16.60
2018-06-21T02:37:59.173Z,16.50
2018-06-21T02:40:27.503Z,16.50
2018-06-21T02:42:55.857Z,16.50
2018-06-21T02:45:24.183Z,16.50
2018-06-21T02:47:52.481Z,16.50
2018-06-21T02:50:20.795Z,16.50
2018-06-21T02:52:49.121Z,16.60
2018-06-21T02:55:17.485Z,16.50
2018-06-21T02:57:45.796Z,16.40
2018-06-21T03:00:14.107Z,16.40
2018-06-21T03:02:42.401Z,16.30
2018-06-21T03:05:10.724Z,16.40
2018-06-21T03:07:39.011Z,16.40
2018-06-21T03:10:07.322Z,16.40
2018-06-21T03:12:35.662Z,16.30
2018-06-21T03:15:04.070Z,16.30
2018-06-21T03:17:32.399Z,16.30
2018-06-21T03:20:00.695Z,16.30
2018-06-21T03:22:28.993Z,16.20
2018-06-21T03:24:57.293Z,16.20
2018-06-21T03:27:25.609Z,16.10
2018-06-21T03:29:53.912Z,16.00
2018-06-21T03:32:22.213Z,16.00
2018-06-21T03:34:50.481Z,16.00
2018-06-21T03:37:18.786Z,16.00
2018-06-21T03:39:47.075Z,16.00
2018-06-21T03:42:15.361Z,16.00
2018-06-21T03:44:43.732Z,16.10
2018-06-21T03:47:12.046Z,16.30
2018-06-21T03:49:40.315Z,16.50
2018-06-21T03:52:08.654Z,16.80
2018-06-21T03:54:36.913Z,17.20
2018-06-21T03:57:06.045Z,17.50
2018-06-21T03:59:34.342Z,17.80
2018-06-21T04:02:02.630Z,18.20
2018-06-21T04:04:30.932Z,18.50
2018-06-21T04:06:59.243Z,18.80
2018-06-21T04:09:27.537Z,19.00
2018-06-21T04:11:55.841Z,19.20
2018-06-21T04:14:24.141Z,19.50
2018-06-21T04:16:52.446Z,19.80
2018-06-21T04:19:20.718Z,20.00
2018-06-21T04:21:49.023Z,20.30
2018-06-21T04:24:17.384Z,20.40
2018-06-21T04:26:45.667Z,20.60
2018-06-21T04:29:13.979Z,20.70
2018-06-21T04:31:42.295Z,20.90
2018-06-21T04:34:10.609Z,20.90
2018-06-21T04:36:38.978Z,21.00
2018-06-21T04:39:08.057Z,21.00
2018-06-21T04:41:36.345Z,21.10
2018-06-21T04:44:04.691Z,21.10
2018-06-21T04:46:33.010Z,21.20
2018-06-21T04:49:01.364Z,21.20
2018-06-21T04:51:30.126Z,21.20
2018-06-21T04:53:58.459Z,21.30
2018-06-21T04:56:26.787Z,21.30
2018-06-21T04:58:55.096Z,21.40
2018-06-21T05:01:23.458Z,21.40
2018-06-21T05:03:51.931Z,21.40
2018-06-21T05:06:20.325Z,21.60
2018-06-21T05:08:48.568Z,21.60
2018-06-21T05:11:16.865Z,21.70
2018-06-21T05:13:45.198Z,21.70
2018-06-21T05:16:13.495Z,21.70
2018-06-21T05:18:42.070Z,21.90
2018-06-21T05:21:10.649Z,22.10
2018-06-21T05:23:38.976Z,22.20
2018-06-21T05:26:07.282Z,22.40
2018-06-21T05:28:35.693Z,22.60
2018-06-21T05:31:04.018Z,22.70
2018-06-21T05:33:32.510Z,22.80
2018-06-21T05:36:00.827Z,23.00
2018-06-21T05:38:29.156Z,23.10
2018-06-21T05:40:57.456Z,23.00
2018-06-21T05:43:25.771Z,23.10
2018-06-21T05:45:54.098Z,23.10
2018-06-21T05:48:22.405Z,23.10
2018-06-21T05:50:50.697Z,23.10
2018-06-21T05:53:18.999Z,23.10
2018-06-21T05:55:47.330Z,23.10
2018-06-21T05:58:15.641Z,23.10
2018-06-21T06:00:43.944Z,23.10
2018-06-21T06:03:12.238Z,23.10
2018-06-21T06:05:40.586Z,23.10
2018-06-21T06:08:08.878Z,23.10
2018-06-21T06:10:37.178Z,23.10
2018-06-21T06:13:05.525Z,23.10
2018-06-21T06:15:33.831Z,23.20
2018-06-21T06:18:02.125Z,23.10
2018-06-21T06:20:30.398Z,23.10
2018-06-21T06:22:58.697Z,23.10
2018-06-21T06:25:26.987Z,23.10
2018-06-21T06:27:55.302Z,23.10
2018-06-21T06:30:23.601Z,23.20
2018-06-21T06:32:51.909Z,23.40
2018-06-21T06:35:20.230Z,23.40
2018-06-21T06:37:48.512Z,23.60
2018-06-21T06:40:16.862Z,23.60
2018-06-21T06:42:45.158Z,23.80
2018-06-21T06:45:13.460Z,24.00
2018-06-21T06:47:41.750Z,24.10
2018-06-21T06:50:10.066Z,24.30
2018-06-21T06:52:38.547Z,24.40
2018-06-21T06:55:06.919Z,24.40
2018-06-21T06:57:35.270Z,24.50
2018-06-21T07:00:03.712Z,24.50
2018-06-21T07:02:32.181Z,24.40
2018-06-21T07:05:00.507Z,24.40
2018-06-21T07:07:28.819Z,24.50
2018-06-21T07:09:57.181Z,24.70
2018-06-21T07:12:25.484Z,24.70
2018-06-21T07:14:53.850Z,24.90
2018-06-21T07:17:22.182Z,25.10
2018-06-21T07:19:50.494Z,25.20
2018-06-21T07:22:18.788Z,25.30
2018-06-21T07:24:47.093Z,25.30
2018-06-21T07:27:15.494Z,25.50
2018-06-21T07:29:43.706Z,25.70
2018-06-21T07:32:11.990Z,25.80
2018-06-21T07:34:40.289Z,25.80
2018-06-21T07:37:08.585Z,25.80
2018-06-21T07:39:36.897Z,25.80
2018-06-21T07:42:05.221Z,25.70
2018-06-21T07:44:33.546Z,25.70
2018-06-21T07:47:01.859Z,25.70
2018-06-21T07:49:30.141Z,25.70
2018-06-21T07:51:58.498Z,25.80
2018-06-21T07:54:26.863Z,25.90
2018-06-21T07:56:55.160Z,25.90
2018-06-21T07:59:23.496Z,25.80
2018-06-21T08:01:51.805Z,25.90
2018-06-21T08:04:20.193Z,26.00
2018-06-21T08:06:48.484Z,26.10
2018-06-21T08:09:16.810Z,26.20
2018-06-21T08:11:45.122Z,26.30
2018-06-21T08:14:13.477Z,26.30
2018-06-21T08:16:43.446Z,26.30
2018-06-21T08:19:11.870Z,26.20
2018-06-21T08:21:40.215Z,26.30
2018-06-21T08:24:08.878Z,26.30
2018-06-21T08:26:37.163Z,26.40
2018-06-21T08:29:05.516Z,26.30
2018-06-21T08:34:01.849Z,26.60
2018-06-21T08:36:30.152Z,26.70
2018-06-21T08:41:29.568Z,27.10
2018-06-21T08:43:57.925Z,27.40
2018-06-21T08:46:26.226Z,27.60
2018-06-21T08:48:54.525Z,27.60
2018-06-21T08:51:22.834Z,27.50
2018-06-21T08:53:51.242Z,27.40
2018-06-21T08:56:19.537Z,27.10
2018-06-21T08:58:47.886Z,27.00
2018-06-21T09:01:16.243Z,26.90
2018-06-21T09:03:44.607Z,27.00
2018-06-21T09:06:12.867Z,27.00
2018-06-21T09:08:41.284Z,26.70
2018-06-21T09:11:09.580Z,26.60
2018-06-21T09:13:38.305Z,26.60
2018-06-21T09:16:08.529Z,26.80
2018-06-21T09:18:36.993Z,26.90
2018-06-21T09:21:05.547Z,27.00
2018-06-21T09:23:33.818Z,27.10
2018-06-21T09:26:02.564Z,26.90
2018-06-21T09:28:30.848Z,26.70
2018-06-21T09:30:59.146Z,26.80
2018-06-21T09:33:27.457Z,26.90
2018-06-21T09:35:55.790Z,27.10
2018-06-21T09:38:29.255Z,27.20
2018-06-21T09:41:02.993Z,27.30
2018-06-21T09:43:36.587Z,27.30
2018-06-21T09:46:10.298Z,27.40
2018-06-21T09:48:38.634Z,27.50
2018-06-21T09:51:06.967Z,27.60
2018-06-21T09:53:35.265Z,27.70
2018-06-21T09:56:03.599Z,27.90
2018-06-21T09:58:31.907Z,28.20
2018-06-21T10:01:03.004Z,28.40
2018-06-21T10:03:31.970Z,28.50
2018-06-21T10:06:00.265Z,28.60
2018-06-21T10:08:28.726Z,28.90
2018-06-21T10:10:57.029Z,28.90
2018-06-21T10:13:25.409Z,28.90
2018-06-21T10:15:53.983Z,28.50
2018-06-21T10:18:22.295Z,28.00
2018-06-21T10:20:50.690Z,27.60
2018-06-21T10:23:18.986Z,27.50
2018-06-21T10:25:47.283Z,27.70
2018-06-21T10:28:15.625Z,27.80
2018-06-21T10:30:43.915Z,27.70
2018-06-21T10:33:12.290Z,27.40
2018-06-21T10:35:40.603Z,27.10
2018-06-21T10:38:08.917Z,27.00
2018-06-21T10:40:37.241Z,26.90
2018-06-21T10:45:33.670Z,27.30
2018-06-21T10:48:01.985Z,27.60
2018-06-21T10:50:30.294Z,27.90
2018-06-21T10:52:58.616Z,28.10
2018-06-21T10:55:26.936Z,28.40
2018-06-21T10:57:55.247Z,28.50
2018-06-21T11:00:23.563Z,28.50
2018-06-21T11:02:51.890Z,28.40
2018-06-21T11:05:20.182Z,28.50
2018-06-21T11:07:48.497Z,28.60
2018-06-21T11:10:16.828Z,28.80
2018-06-21T11:12:45.133Z,29.00
2018-06-21T11:15:13.448Z,28.90
2018-06-21T11:17:41.796Z,28.40
2018-06-21T11:20:10.112Z,27.90
2018-06-21T11:22:38.431Z,27.50
2018-06-21T11:25:06.754Z,27.30
2018-06-21T11:27:35.070Z,27.30
2018-06-21T11:30:03.450Z,27.50
2018-06-21T11:32:31.786Z,27.50
2018-06-21T11:35:00.126Z,27.70
2018-06-21T11:37:28.449Z,27.60
2018-06-21T11:39:56.766Z,27.60
2018-06-21T11:42:25.071Z,27.80
2018-06-21T11:44:53.358Z,28.10
2018-06-21T11:47:21.668Z,28.20
2018-06-21T11:49:49.969Z,28.20
2018-06-21T11:52:18.328Z,28.30
2018-06-21T11:54:46.637Z,28.50
2018-06-21T11:57:14.942Z,28.80
2018-06-21T11:59:43.283Z,29.00
2018-06-21T12:02:11.767Z,29.30
2018-06-21T12:04:40.084Z,29.50
2018-06-21T12:07:08.417Z,29.70
2018-06-21T12:09:36.708Z,29.80
2018-06-21T12:12:04.992Z,29.60
2018-06-21T12:14:33.337Z,29.40
2018-06-21T12:17:01.645Z,29.00
2018-06-21T12:19:29.966Z,28.60
2018-06-21T12:21:58.265Z,28.30
2018-06-21T12:24:26.588Z,28.00
2018-06-21T12:26:54.909Z,27.60
2018-06-21T12:29:23.223Z,27.40
2018-06-21T12:31:51.546Z,27.10
2018-06-21T12:34:19.838Z,26.80
2018-06-21T12:36:48.142Z,26.60
2018-06-21T12:39:16.439Z,26.50
2018-06-21T12:41:44.755Z,26.50
2018-06-21T12:44:13.071Z,26.40
2018-06-21T12:46:41.374Z,26.20
2018-06-21T12:49:09.672Z,26.20
2018-06-21T12:51:37.989Z,26.20
2018-06-21T12:54:06.309Z,26.20
2018-06-21T12:56:34.635Z,26.20
2018-06-21T12:59:02.965Z,26.30
2018-06-21T13:01:31.268Z,26.30
2018-06-21T13:03:59.578Z,26.50
2018-06-21T13:06:27.886Z,26.70
2018-06-21T13:09:07.640Z,27.00
2018-06-21T13:12:49.358Z,27.20
2018-06-21T13:15:17.669Z,27.30
2018-06-21T13:17:45.982Z,27.40
2018-06-21T13:22:42.339Z,27.90
2018-06-21T13:25:10.667Z,28.10
2018-06-21T13:27:38.980Z,28.30
2018-06-21T13:30:08.756Z,28.40
2018-06-21T13:32:37.068Z,28.40
2018-06-21T13:35:05.717Z,28.50
2018-06-21T13:37:34.000Z,28.60
2018-06-21T13:40:02.321Z,28.40
2018-06-21T13:42:30.656Z,28.00
2018-06-21T13:44:58.976Z,27.50
2018-06-21T13:47:27.287Z,26.70
2018-06-21T13:49:55.650Z,25.60
2018-06-21T13:52:23.938Z,24.60
2018-06-21T13:54:52.257Z,23.50
2018-06-21T13:57:20.581Z,22.40
2018-06-21T13:59:48.933Z,21.50
2018-06-21T14:02:17.189Z,20.90
2018-06-21T14:04:45.509Z,20.60
2018-06-21T14:07:13.822Z,20.50
2018-06-21T14:09:42.136Z,20.40
2018-06-21T14:12:12.310Z,20.40
2018-06-21T14:14:40.673Z,20.50
2018-06-21T14:17:08.920Z,20.70
2018-06-21T14:19:37.224Z,20.80
2018-06-21T14:22:05.572Z,21.00
2018-06-21T14:24:33.892Z,21.30
2018-06-21T14:27:02.198Z,21.50
2018-06-21T14:29:30.479Z,21.80
2018-06-21T14:31:58.841Z,22.10
2018-06-21T14:34:27.164Z,22.50
2018-06-21T14:36:55.472Z,22.90
2018-06-21T14:39:23.767Z,23.40
2018-06-21T14:41:52.059Z,23.90
2018-06-21T14:44:20.397Z,24.30
2018-06-21T14:46:48.713Z,24.80
2018-06-21T14:49:20.029Z,25.30
2018-06-21T14:51:48.406Z,25.50
2018-06-21T14:54:16.678Z,25.70
2018-06-21T14:56:45.001Z,25.60
2018-06-21T14:59:13.306Z,25.50
2018-06-21T15:01:41.613Z,25.00
2018-06-21T15:04:09.911Z,24.50
2018-06-21T15:06:38.243Z,24.20
2018-06-21T15:11:37.416Z,23.70
2018-06-21T15:14:05.884Z,23.60
2018-06-21T15:16:34.177Z,23.40
2018-06-21T15:19:02.515Z,23.20
2018-06-21T15:21:30.837Z,23.20
2018-06-21T15:23:59.184Z,23.20
2018-06-21T15:26:27.596Z,23.30
2018-06-21T15:28:55.936Z,23.40
2018-06-21T15:31:24.219Z,23.60
2018-06-21T15:33:52.518Z,24.10
2018-06-21T15:36:20.825Z,24.50
2018-06-21T15:38:49.149Z,25.20
2018-06-21T15:41:17.487Z,25.50
2018-06-21T15:43:45.798Z,25.90
2018-06-21T15:46:14.129Z,26.20
2018-06-21T15:48:42.501Z,26.50
2018-06-21T15:51:10.922Z,26.30
2018-06-21T15:53:40.120Z,26.30
2018-06-21T15:56:08.429Z,26.20
2018-06-21T15:58:36.741Z,25.90
2018-06-21T16:01:05.049Z,25.90
2018-06-21T16:03:33.365Z,26.50
2018-06-21T16:06:01.666Z,26.50
2018-06-21T16:08:29.992Z,26.20
2018-06-21T16:10:58.300Z,26.10
2018-06-21T16:13:26.573Z,26.30
2018-06-21T16:15:54.925Z,26.30
2018-06-21T16:18:24.090Z,26.10
2018-06-21T16:20:52.405Z,25.70
2018-06-21T16:23:20.721Z,25.40
2018-06-21T16:25:49.042Z,25.20
2018-06-21T16:28:17.412Z,25.40
2018-06-21T16:30:45.652Z,25.40
2018-06-21T16:33:13.974Z,25.50
2018-06-21T16:35:42.315Z,26.30
2018-06-21T16:38:10.601Z,27.20
2018-06-21T16:40:38.906Z,27.80
2018-06-21T16:43:07.209Z,27.90
2018-06-21T16:45:35.518Z,28.40
2018-06-21T16:48:03.857Z,28.90
2018-06-21T16:50:32.193Z,28.20
2018-06-21T16:53:00.505Z,27.30
2018-06-21T16:55:28.825Z,26.40
2018-06-21T16:57:57.144Z,25.80
2018-06-21T17:00:25.454Z,25.20
2018-06-21T17:02:53.800Z,24.80
2018-06-21T17:05:22.142Z,24.80
2018-06-21T17:07:50.451Z,24.70
2018-06-21T17:10:18.756Z,24.50
2018-06-21T17:12:47.135Z,24.40
2018-06-21T17:15:15.414Z,24.60
2018-06-21T17:17:43.726Z,25.00
2018-06-21T17:20:12.015Z,25.30
2018-06-21T17:22:40.302Z,25.90
2018-06-21T17:25:08.613Z,26.10
2018-06-21T17:27:36.928Z,26.10
2018-06-21T17:30:05.637Z,25.50
2018-06-21T17:32:34.040Z,25.30
2018-06-21T17:35:02.403Z,25.10
2018-06-21T17:37:30.717Z,24.90
2018-06-21T17:39:59.032Z,24.50
2018-06-21T17:42:27.342Z,24.50
2018-06-21T17:44:55.650Z,24.30
2018-06-21T17:47:24.018Z,24.30
2018-06-21T17:49:52.318Z,24.20
2018-06-21T17:52:20.651Z,24.20
2018-06-21T17:54:48.996Z,24.00
2018-06-21T17:57:17.353Z,23.90
2018-06-21T17:59:46.604Z,23.90
2018-06-21T18:02:14.905Z,23.70
2018-06-21T18:04:43.236Z,23.60
2018-06-21T18:09:39.560Z,23.50
2018-06-21T18:12:07.875Z,23.50
2018-06-21T18:17:04.199Z,23.30
2018-06-21T18:19:32.490Z,23.20
2018-06-21T18:22:00.919Z,23.20
2018-06-21T18:24:29.312Z,23.40
2018-06-21T18:26:57.613Z,23.20
2018-06-21T18:29:25.914Z,22.80
2018-06-21T18:31:54.325Z,22.70
2018-06-21T18:34:22.624Z,22.60
2018-06-21T18:36:50.953Z,22.40
2018-06-21T18:39:19.251Z,22.30
2018-06-21T18:41:47.550Z,22.20
2018-06-21T18:44:15.853Z,22.10
2018-06-21T18:46:44.158Z,22.00
2018-06-21T18:49:12.467Z,21.90
2018-06-21T18:51:40.737Z,21.90
2018-06-21T18:54:09.049Z,21.80
2018-06-21T18:56:37.331Z,21.70
2018-06-21T18:59:05.665Z,21.50
2018-06-21T19:01:33.973Z,21.30
2018-06-21T19:04:02.282Z,21.10
2018-06-21T19:06:36.013Z,21.10
2018-06-21T19:09:11.585Z,20.90
2018-06-21T19:11:45.306Z,20.80
2018-06-21T19:14:13.682Z,20.70
2018-06-21T19:16:41.979Z,20.70
2018-06-21T19:19:10.264Z,20.60
2018-06-21T19:21:38.562Z,20.50
2018-06-21T19:24:06.851Z,20.40
2018-06-21T19:26:35.445Z,20.40
2018-06-21T19:29:03.772Z,20.30
2018-06-21T19:31:32.285Z,20.20
2018-06-21T19:34:00.595Z,20.10
2018-06-21T19:36:28.918Z,20.00
2018-06-21T19:38:57.173Z,19.90
2018-06-21T19:41:25.474Z,19.90
2018-06-21T19:43:53.805Z,19.80
2018-06-21T19:46:22.097Z,19.80
2018-06-21T19:48:50.389Z,19.70
2018-06-21T19:51:18.665Z,19.70
2018-06-21T19:53:46.954Z,19.70
2018-06-21T19:56:15.243Z,19.60
2018-06-21T19:58:43.577Z,19.60
2018-06-21T20:01:11.877Z,19.50
2018-06-21T20:03:40.189Z,19.50
2018-06-21T20:06:08.489Z,19.50
2018-06-21T20:08:36.993Z,19.40
2018-06-21T20:11:10.789Z,19.30
2018-06-21T20:13:45.919Z,19.30
2018-06-21T20:16:14.340Z,19.20
2018-06-21T20:18:42.673Z,19.20
2018-06-21T20:21:20.010Z,19.10
2018-06-21T20:23:49.543Z,19.10
2018-06-21T20:26:18.534Z,19.00
2018-06-21T20:28:46.857Z,18.90
2018-06-21T20:31:16.534Z,18.80
2018-06-21T20:33:45.828Z,18.80
2018-06-21T20:36:14.743Z,18.70
2018-06-21T20:38:43.059Z,18.80
2018-06-21T20:41:11.970Z,18.70
2018-06-21T20:43:40.280Z,18.70
2018-06-21T20:46:08.611Z,18.60
2018-06-21T20:48:36.988Z,18.50
2018-06-21T20:51:05.314Z,18.50
2018-06-21T20:53:33.649Z,18.60
2018-06-21T20:56:01.948Z,18.50
2018-06-21T20:58:30.269Z,18.50
2018-06-21T21:00:58.552Z,18.50
2018-06-21T21:03:26.815Z,18.40
2018-06-21T21:05:55.103Z,18.40
2018-06-21T21:08:23.398Z,18.40
2018-06-21T21:10:51.661Z,18.30
2018-06-21T21:13:20.038Z,18.30
2018-06-21T21:15:48.333Z,18.30
2018-06-21T21:18:22.986Z,18.30
2018-06-21T21:20:51.277Z,18.30
2018-06-21T21:23:19.550Z,18.30
2018-06-21T21:25:47.849Z,18.30
2018-06-21T21:28:16.169Z,18.30
2018-06-21T21:30:44.479Z,18.40
2018-06-21T21:33:12.752Z,18.30
2018-06-21T21:35:41.031Z,18.20
2018-06-21T21:38:09.293Z,18.10
2018-06-21T21:40:37.550Z,17.90
2018-06-21T21:45:33.852Z,17.80
2018-06-21T21:48:02.125Z,17.80
2018-06-21T21:50:30.410Z,17.80
2018-06-21T21:52:58.687Z,17.70
2018-06-21T21:55:26.990Z,17.70
2018-06-21T21:57:55.273Z,17.70
2018-06-21T22:00:57.499Z,17.70
2018-06-21T22:03:25.784Z,17.70
2018-06-21T22:05:54.373Z,17.60
2018-06-21T22:08:22.670Z,17.60
2018-06-21T22:10:50.930Z,17.60
2018-06-21T22:13:19.326Z,17.50
2018-06-21T22:15:47.505Z,17.50
2018-06-21T22:18:15.812Z,17.40
2018-06-21T22:20:50.927Z,17.30
2018-06-21T22:23:19.209Z,17.30
2018-06-21T22:25:47.473Z,17.20
2018-06-21T22:28:15.739Z,17.10
2018-06-21T22:30:44.015Z,17.10
2018-06-21T22:33:12.293Z,17.10
2018-06-21T22:35:40.554Z,17.10
2018-06-21T22:38:08.822Z,17.10
2018-06-21T22:40:37.086Z,17.10
2018-06-21T22:43:05.448Z,17.00
2018-06-21T22:45:33.749Z,17.00
2018-06-21T22:48:02.026Z,17.00
2018-06-21T22:50:30.379Z,16.90
2018-06-21T22:52:58.595Z,16.80
2018-06-21T22:55:26.859Z,16.80
2018-06-21T22:57:55.135Z,16.80
2018-06-21T23:00:23.405Z,16.80
2018-06-21T23:02:51.682Z,16.70
2018-06-21T23:05:20.071Z,16.60
2018-06-21T23:07:48.321Z,16.60
2018-06-21T23:10:16.606Z,16.60
2018-06-21T23:12:44.904Z,16.40
2018-06-21T23:15:13.178Z,16.30
2018-06-21T23:17:41.450Z,16.30
2018-06-21T23:20:09.746Z,16.10
2018-06-21T23:22:37.998Z,16.10
2018-06-21T23:25:06.275Z,16.00
2018-06-21T23:27:35.162Z,16.00
2018-06-21T23:30:03.482Z,16.00
2018-06-21T23:32:31.774Z,16.10
2018-06-21T23:35:00.065Z,16.00
2018-06-21T23:37:28.336Z,16.00
2018-06-21T23:39:56.602Z,16.00
2018-06-21T23:42:24.904Z,15.90
2018-06-21T23:44:53.178Z,15.90
2018-06-21T23:47:21.468Z,15.80
2018-06-21T23:49:49.749Z,15.70
2018-06-21T23:52:18.036Z,15.60
2018-06-21T23:54:46.364Z,15.50
2018-06-21T23:57:14.645Z,15.40
2018-06-21T23:59:42.927Z,15.30
